createdAt,value
2023-03-10T00:00:35.773Z,369
2023-03-10T00:02:40.853Z,374
2023-03-10T00:04:46.412Z,374
2023-03-10T00:06:51.842Z,374
2023-03-10T00:08:56.991Z,374
2023-03-10T00:11:02.329Z,373
2023-03-10T00:13:07.624Z,373
2023-03-10T00:15:13.204Z,374
2023-03-10T00:17:18.450Z,378
2023-03-10T00:19:23.864Z,374
2023-03-10T00:21:29.313Z,373
2023-03-10T00:23:38.300Z,374
2023-03-10T00:25:43.540Z,369
2023-03-10T00:27:49.018Z,374
2023-03-10T00:29:54.499Z,369
2023-03-10T00:31:59.505Z,373
2023-03-10T00:34:04.976Z,377
2023-03-10T00:36:10.640Z,370
2023-03-10T00:38:15.981Z,368
2023-03-10T00:40:21.213Z,373
2023-03-10T00:42:26.557Z,370
2023-03-10T00:44:31.927Z,375
2023-03-10T00:46:37.710Z,373
2023-03-10T00:48:43.563Z,372
2023-03-10T00:50:48.713Z,373
2023-03-10T00:52:54.251Z,377
2023-03-10T00:54:59.674Z,369
2023-03-10T00:57:05.614Z,374
2023-03-10T00:59:13.735Z,378
2023-03-10T01:01:19.206Z,374
2023-03-10T01:03:24.463Z,378
2023-03-10T01:05:29.910Z,377
2023-03-10T01:07:35.424Z,378
2023-03-10T01:09:40.896Z,373
2023-03-10T01:11:46.188Z,375
2023-03-10T01:13:51.635Z,375
2023-03-10T01:15:56.950Z,375
2023-03-10T01:18:02.419Z,374
2023-03-10T01:20:07.657Z,372
2023-03-10T01:22:13.178Z,373
2023-03-10T01:24:18.482Z,374
2023-03-10T01:26:23.736Z,377
2023-03-10T01:28:29.122Z,369
2023-03-10T01:30:34.617Z,374
2023-03-10T01:32:40.438Z,373
2023-03-10T01:34:45.905Z,374
2023-03-10T01:36:51.332Z,374
2023-03-10T01:38:56.937Z,373
2023-03-10T01:41:02.477Z,369
2023-03-10T01:43:07.872Z,372
2023-03-10T01:45:13.116Z,373
2023-03-10T01:47:21.964Z,369
2023-03-10T01:49:27.538Z,373
2023-03-10T01:51:32.776Z,373
2023-03-10T01:53:38.225Z,370
2023-03-10T01:55:43.438Z,369
2023-03-10T01:57:48.884Z,377
2023-03-10T01:59:54.287Z,369
2023-03-10T02:01:59.943Z,368
2023-03-10T02:04:05.365Z,372
2023-03-10T02:06:10.852Z,367
2023-03-10T02:08:16.183Z,372
2023-03-10T02:10:21.553Z,368
2023-03-10T02:12:27.311Z,368
2023-03-10T02:14:32.724Z,368
2023-03-10T02:16:38.300Z,372
2023-03-10T02:18:43.864Z,375
2023-03-10T02:20:49.812Z,369
2023-03-10T02:22:55.355Z,368
2023-03-10T02:25:00.770Z,367
2023-03-10T02:27:06.438Z,373
2023-03-10T02:29:11.843Z,374
2023-03-10T02:31:20.290Z,368
2023-03-10T02:33:25.522Z,374
2023-03-10T02:35:31.093Z,369
2023-03-10T02:37:36.544Z,369
2023-03-10T02:39:41.836Z,373
2023-03-10T02:41:48.141Z,368
2023-03-10T02:43:53.456Z,369
2023-03-10T02:45:59.059Z,367
2023-03-10T02:48:04.615Z,369
2023-03-10T02:50:10.086Z,369
2023-03-10T02:52:16.003Z,374
2023-03-10T02:54:21.483Z,369
2023-03-10T02:56:27.096Z,378
2023-03-10T02:58:32.721Z,370
2023-03-10T03:00:38.243Z,369
2023-03-10T03:02:43.760Z,373
2023-03-10T03:04:49.277Z,375
2023-03-10T03:06:54.815Z,374
2023-03-10T03:09:00.136Z,374
2023-03-10T03:11:05.836Z,370
2023-03-10T03:13:11.539Z,374
2023-03-10T03:15:19.973Z,373
2023-03-10T03:17:26.213Z,373
2023-03-10T03:19:32.548Z,369
2023-03-10T03:21:37.928Z,373
2023-03-10T03:23:43.284Z,372
2023-03-10T03:25:48.645Z,374
2023-03-10T03:27:54.074Z,374
2023-03-10T03:29:59.437Z,368
2023-03-10T03:32:05.157Z,368
2023-03-10T03:34:11.006Z,368
2023-03-10T03:36:16.211Z,368
2023-03-10T03:38:21.635Z,369
2023-03-10T03:40:26.907Z,367
2023-03-10T03:42:32.617Z,367
2023-03-10T03:44:38.235Z,369
2023-03-10T03:46:43.470Z,368
2023-03-10T03:48:49.034Z,368
2023-03-10T03:50:54.633Z,368
2023-03-10T03:53:00.047Z,372
2023-03-10T03:55:05.261Z,368
2023-03-10T03:57:10.849Z,368
2023-03-10T03:59:19.158Z,369
2023-03-10T04:01:24.461Z,372
2023-03-10T04:03:30.267Z,368
2023-03-10T04:05:35.504Z,367
2023-03-10T04:07:40.840Z,367
2023-03-10T04:09:46.582Z,368
2023-03-10T04:11:51.836Z,366
2023-03-10T04:13:57.198Z,365
2023-03-10T04:16:02.818Z,364
2023-03-10T04:18:08.451Z,364
2023-03-10T04:20:13.807Z,363
2023-03-10T04:22:19.024Z,364
2023-03-10T04:24:24.227Z,367
2023-03-10T04:26:29.350Z,358
2023-03-10T04:28:34.639Z,361
2023-03-10T04:30:40.004Z,360
2023-03-10T04:32:47.894Z,363
2023-03-10T04:34:54.641Z,360
2023-03-10T04:36:59.857Z,361
2023-03-10T04:39:05.414Z,361
2023-03-10T04:41:10.762Z,360
2023-03-10T04:43:16.169Z,356
2023-03-10T04:45:21.310Z,360
2023-03-10T04:47:26.942Z,357
2023-03-10T04:49:32.335Z,358
2023-03-10T04:51:38.127Z,356
2023-03-10T04:53:43.632Z,357
2023-03-10T04:55:48.814Z,361
2023-03-10T04:57:54.466Z,360
2023-03-10T05:00:03.520Z,360
2023-03-10T05:02:09.276Z,360
2023-03-10T05:04:14.635Z,357
2023-03-10T05:06:20.084Z,357
2023-03-10T05:08:25.682Z,357
2023-03-10T05:10:31.089Z,357
2023-03-10T05:12:36.487Z,361
2023-03-10T05:14:41.765Z,356
2023-03-10T05:16:47.130Z,357
2023-03-10T05:18:52.425Z,356
2023-03-10T05:20:58.239Z,362
2023-03-10T05:23:03.226Z,363
2023-03-10T05:25:08.887Z,366
2023-03-10T05:27:14.116Z,367
2023-03-10T05:29:19.514Z,368
2023-03-10T05:31:24.834Z,367
2023-03-10T05:33:33.788Z,367
2023-03-10T05:35:39.396Z,368
2023-03-10T05:37:44.851Z,368
2023-03-10T05:39:49.996Z,369
2023-03-10T05:41:55.240Z,373
2023-03-10T05:44:00.626Z,367
2023-03-10T05:46:05.864Z,375
2023-03-10T05:48:10.961Z,372
2023-03-10T05:50:16.333Z,374
2023-03-10T05:52:21.880Z,378
2023-03-10T05:54:27.211Z,373
2023-03-10T05:56:32.737Z,374
2023-03-10T05:58:38.528Z,374
2023-03-10T06:00:43.879Z,374
2023-03-10T06:02:49.349Z,373
2023-03-10T06:04:55.728Z,378
2023-03-10T06:07:01.610Z,379
2023-03-10T06:09:06.893Z,376
2023-03-10T06:11:14.573Z,374
2023-03-10T06:13:20.780Z,376
2023-03-10T06:15:26.798Z,374
2023-03-10T06:17:32.688Z,378
2023-03-10T06:19:38.705Z,374
2023-03-10T06:21:44.479Z,374
2023-03-10T06:23:50.243Z,379
2023-03-10T06:25:56.095Z,373
2023-03-10T06:28:02.670Z,374
2023-03-10T06:30:08.271Z,378
2023-03-10T06:32:15.359Z,375
2023-03-10T06:34:20.847Z,373
2023-03-10T06:36:27.231Z,373
2023-03-10T06:38:33.285Z,374
2023-03-10T06:40:38.782Z,370
2023-03-10T06:42:45.026Z,375
2023-03-10T06:44:52.182Z,374
2023-03-10T06:46:58.357Z,377
2023-03-10T06:49:04.020Z,378
2023-03-10T06:51:10.362Z,376
2023-03-10T06:53:17.130Z,373
2023-03-10T06:55:22.721Z,373
2023-03-10T06:57:29.864Z,378
2023-03-10T06:59:35.319Z,374
2023-03-10T07:01:42.115Z,375
2023-03-10T07:03:47.901Z,374
2023-03-10T07:05:53.749Z,375
2023-03-10T07:07:59.590Z,374
2023-03-10T07:10:08.546Z,375
2023-03-10T07:12:13.949Z,374
2023-03-10T07:14:19.092Z,376
2023-03-10T07:16:24.767Z,374
2023-03-10T07:18:30.443Z,373
2023-03-10T07:20:36.037Z,375
2023-03-10T07:22:41.826Z,374
2023-03-10T07:24:48.211Z,373
2023-03-10T07:26:54.418Z,377
2023-03-10T07:29:00.079Z,374
2023-03-10T07:31:05.578Z,374
2023-03-10T07:33:11.035Z,374
2023-03-10T07:35:17.056Z,370
2023-03-10T07:37:22.181Z,375
2023-03-10T07:39:28.695Z,374
2023-03-10T07:41:35.261Z,377
2023-03-10T07:43:41.732Z,374
2023-03-10T07:45:48.249Z,376
2023-03-10T07:47:53.806Z,373
2023-03-10T07:49:59.213Z,378
2023-03-10T07:52:04.649Z,370
2023-03-10T07:54:09.995Z,374
2023-03-10T07:56:15.298Z,369
2023-03-10T07:58:20.702Z,375
2023-03-10T08:00:25.784Z,374
2023-03-10T08:02:30.936Z,376
2023-03-10T08:04:38.203Z,378
2023-03-10T08:06:45.512Z,378
2023-03-10T08:08:50.960Z,376
2023-03-10T08:10:57.229Z,374
2023-03-10T08:13:03.298Z,378
2023-03-10T08:15:09.485Z,375
2023-03-10T08:17:15.617Z,374
2023-03-10T08:19:21.638Z,375
2023-03-10T08:21:28.846Z,379
2023-03-10T08:23:34.578Z,375
2023-03-10T08:25:42.260Z,378
2023-03-10T08:27:49.013Z,381
2023-03-10T08:29:55.909Z,374
2023-03-10T08:32:02.929Z,375
2023-03-10T08:34:09.211Z,373
2023-03-10T08:36:16.065Z,375
2023-03-10T08:38:22.181Z,374
2023-03-10T08:40:27.976Z,375
2023-03-10T08:42:33.947Z,374
2023-03-10T08:44:39.793Z,375
2023-03-10T08:46:48.746Z,378
2023-03-10T08:48:54.552Z,376
2023-03-10T08:51:01.734Z,378
2023-03-10T08:53:08.991Z,378
2023-03-10T08:55:16.416Z,376
2023-03-10T08:57:21.942Z,376
2023-03-10T08:59:29.277Z,374
2023-03-10T09:01:35.967Z,376
2023-03-10T09:03:42.437Z,374
2023-03-10T09:05:48.694Z,379
